Time;durP1;ratioP1;P1;durP2;ratioP2;P2;SDS_P1;SDS_P2;PMS_P1;PMS_P2;Temp;Humidity;BMP_temperature;BMP_pressure;BME280_temperature;BME280_humidity;BME280_pressure;Samples;Min_cycle;Max_cycle;Signal;HPM_P1;HPM_P2
2023/02/21 02:14:35;;;;;;;;;;;;;;;12.55;73.13;101646.56;1271173;23;660;-64
2023/02/21 02:15:26;;;;;;;;;;;;;;;12.57;73.33;101639.34;1272161;23;571;-65
2023/02/21 02:16:16;;;;;;;;;;;;;;;12.55;73.85;101638.56;1271285;23;685;-65
2023/02/21 02:17:06;;;;;;;;;;;;;;;12.56;73.61;101645.63;1271884;23;677;-65
2023/02/21 02:17:57;;;;;;;;;;;;;;;12.57;73.71;101642.00;1271692;23;631;-65
2023/02/21 02:18:47;;;;;;;;;;;;;;;12.55;73.66;101638.56;1271874;23;1083;-64
2023/02/21 02:19:38;;;;;;;;;;;;;;;12.56;73.84;101648.31;1272623;23;716;-64
2023/02/21 02:20:28;;;;;;;;;;;;;;;12.56;73.78;101639.41;1271828;23;1116;-65
2023/02/21 02:21:19;;;;;;;;;;;;;;;12.54;74.16;101636.84;1270860;23;621;-65
2023/02/21 02:22:09;;;;;;;;;;;;;;;12.56;73.56;101640.28;1272017;23;626;-65
2023/02/21 02:22:59;;;;;;;;;;;;;;;12.57;73.31;101638.47;1272036;23;665;-64
2023/02/21 02:23:50;;;;;;;;;;;;;;;12.57;74.13;101633.13;1271773;23;639;-64
2023/02/21 02:24:40;;;;;;;;;;;;;;;12.58;73.66;101637.50;1271879;23;646;-65
2023/02/21 02:25:31;;;;;;;;;;;;;;;12.54;74.03;101628.81;1270808;23;646;-65
2023/02/21 02:26:21;;;;;;;;;;;;;;;12.55;73.63;101635.03;1272774;23;669;-64
2023/02/21 02:27:12;;;;;;;;;;;;;;;12.54;74.19;101633.34;1271685;23;626;-65
2023/02/21 02:28:02;;;;;;;;;;;;;;;12.52;73.57;101631.59;1271910;23;699;-64
2023/02/21 02:28:52;;;;;;;;;;;;;;;12.55;73.70;101635.88;1272284;23;840;-64
2023/02/21 02:29:43;;;;;;;;;;;;;;;12.55;73.71;101629.69;1270934;23;682;-64
2023/02/21 02:30:34;;;;;;;;;;;;;;;12.56;74.00;101623.38;1271261;23;697;-65
2023/02/21 02:31:24;;;;;;;;;;;;;;;12.55;73.69;101629.69;1271989;23;618;-64
2023/02/21 02:32:15;;;;;;;;;;;;;;;12.55;73.67;101630.53;1272153;23;621;-65
2023/02/21 02:33:05;;;;;;;;;;;;;;;12.56;73.35;101631.41;1271809;23;631;-65
2023/02/21 02:33:55;;;;;;;;;;;;;;;12.56;73.40;101636.75;1272731;23;674;-65
2023/02/21 02:34:46;;;;;;;;;;;;;;;12.55;74.05;101625.19;1271767;23;622;-65
2023/02/21 02:35:36;;;;;;;;;;;;;;;12.55;73.28;101630.53;1272040;23;649;-65
2023/02/21 02:36:27;;;;;;;;;;;;;;;12.57;73.99;101630.44;1271776;23;683;-64
2023/02/21 02:37:17;;;;;;;;;;;;;;;12.55;73.77;101633.22;1271944;23;768;-65
2023/02/21 02:38:08;;;;;;;;;;;;;;;12.54;73.34;101636.00;1270941;23;1909;-65
2023/02/21 02:38:58;;;;;;;;;;;;;;;12.55;73.60;101629.69;1271002;23;603;-65
2023/02/21 02:39:48;;;;;;;;;;;;;;;12.54;74.13;101630.66;1271915;23;666;-65
2023/02/21 02:40:39;;;;;;;;;;;;;;;12.55;73.58;101633.22;1272663;23;673;-65
2023/02/21 02:41:29;;;;;;;;;;;;;;;12.54;74.05;101642.19;1271796;23;658;-64
2023/02/21 02:42:20;;;;;;;;;;;;;;;12.54;73.65;101636.84;1272041;23;673;-64
2023/02/21 02:43:11;;;;;;;;;;;;;;;12.52;73.59;101633.44;1271846;23;622;-64
2023/02/21 02:44:01;;;;;;;;;;;;;;;12.55;73.33;101635.03;1272890;23;645;-64
2023/02/21 02:44:52;;;;;;;;;;;;;;;12.55;74.16;101637.69;1272727;23;660;-64
2023/02/21 02:45:42;;;;;;;;;;;;;;;12.55;74.19;101632.34;1271923;23;793;-64
2023/02/21 02:46:33;;;;;;;;;;;;;;;12.56;73.70;101634.06;1271655;23;666;-64
2023/02/21 02:47:23;;;;;;;;;;;;;;;12.54;73.55;101636.84;1271193;23;673;-64
2023/02/21 02:48:14;;;;;;;;;;;;;;;12.54;73.86;101636.84;1271732;23;630;-64
2023/02/21 02:49:04;;;;;;;;;;;;;;;12.54;73.84;101638.69;1272408;23;657;-64
2023/02/21 02:49:55;;;;;;;;;;;;;;;12.55;74.32;101638.56;1272137;23;641;-64
2023/02/21 02:50:45;;;;;;;;;;;;;;;12.56;74.13;101650.13;1271068;23;670;-64
2023/02/21 02:51:36;;;;;;;;;;;;;;;12.55;73.94;101643.91;1272605;23;677;-64
2023/02/21 02:52:26;;;;;;;;;;;;;;;12.55;73.54;101637.69;1271861;23;618;-64
2023/02/21 02:53:17;;;;;;;;;;;;;;;12.54;73.57;101636.00;1272139;23;649;-64
2023/02/21 02:54:07;;;;;;;;;;;;;;;12.55;73.47;101637.69;1271806;23;713;-64
2023/02/21 02:54:58;;;;;;;;;;;;;;;12.55;74.42;101637.69;1271152;23;682;-64
2023/02/21 02:55:48;;;;;;;;;;;;;;;12.55;74.01;101635.03;1272749;23;605;-64
2023/02/21 02:56:39;;;;;;;;;;;;;;;12.57;73.69;101630.44;1272155;23;638;-64
2023/02/21 02:57:29;;;;;;;;;;;;;;;12.55;73.51;101630.53;1271764;23;646;-63
2023/02/21 02:58:21;;;;;;;;;;;;;;;12.55;73.77;101633.22;1272756;23;1885;-63
2023/02/21 02:59:11;;;;;;;;;;;;;;;12.56;73.42;101634.94;1272666;23;622;-65
2023/02/21 03:00:02;;;;;;;;;;;;;;;12.57;74.14;101630.44;1272494;23;653;-65
2023/02/21 03:00:52;;;;;;;;;;;;;;;12.57;74.34;101635.78;1271892;23;602;-63
2023/02/21 03:01:43;;;;;;;;;;;;;;;12.58;73.39;101638.38;1272394;23;680;-64
2023/02/21 03:02:33;;;;;;;;;;;;;;;12.57;73.65;101641.13;1266226;23;678;-63
2023/02/21 03:03:23;;;;;;;;;;;;;;;12.57;73.80;101642.00;1273086;23;665;-65
2023/02/21 03:04:14;;;;;;;;;;;;;;;12.57;74.32;101642.00;1272779;23;617;-65
2023/02/21 03:05:04;;;;;;;;;;;;;;;12.55;73.69;101651.94;1271821;23;681;-64
2023/02/21 03:05:55;;;;;;;;;;;;;;;12.56;74.04;101645.63;1272036;23;684;-65
2023/02/21 03:06:45;;;;;;;;;;;;;;;12.58;73.89;101653.56;1271857;23;622;-65
2023/02/21 03:07:36;;;;;;;;;;;;;;;12.56;74.35;101644.75;1272081;23;689;-65
2023/02/21 03:08:26;;;;;;;;;;;;;;;12.56;74.22;101642.97;1271797;23;605;-64
2023/02/21 03:09:18;;;;;;;;;;;;;;;12.56;73.91;101656.31;1271910;23;637;-65
2023/02/21 03:10:08;;;;;;;;;;;;;;;12.56;74.14;101650.97;1271808;23;803;-65
2023/02/21 03:10:58;;;;;;;;;;;;;;;12.58;73.65;101650.88;1271877;23;685;-65
2023/02/21 03:11:49;;;;;;;;;;;;;;;12.57;74.13;101647.34;1272809;23;687;-65
2023/02/21 03:12:39;;;;;;;;;;;;;;;12.56;73.81;101645.63;1272560;23;787;-65
2023/02/21 03:13:30;;;;;;;;;;;;;;;12.59;74.36;101644.59;1272030;23;693;-65
2023/02/21 03:14:20;;;;;;;;;;;;;;;12.58;73.36;101643.72;1271275;23;661;-64
2023/02/21 03:15:11;;;;;;;;;;;;;;;12.57;73.45;101647.34;1271870;23;670;-64
2023/02/21 03:16:01;;;;;;;;;;;;;;;12.57;73.75;101636.66;1271653;23;665;-65
2023/02/21 03:16:51;;;;;;;;;;;;;;;12.58;74.05;101641.06;1271807;23;657;-65
2023/02/21 03:17:42;;;;;;;;;;;;;;;12.55;73.56;101638.56;1270675;23;661;-65
2023/02/21 03:18:32;;;;;;;;;;;;;;;12.57;73.37;101636.66;1271464;23;2246;-64
2023/02/21 03:19:23;;;;;;;;;;;;;;;12.58;74.22;101638.38;1272143;23;697;-64
2023/02/21 03:20:13;;;;;;;;;;;;;;;12.55;73.56;101624.31;1271713;23;638;-64
2023/02/21 03:21:04;;;;;;;;;;;;;;;12.56;73.62;101637.59;1271869;23;673;-64
2023/02/21 03:21:54;;;;;;;;;;;;;;;12.55;74.29;101632.34;1271730;23;622;-64
2023/02/21 03:22:44;;;;;;;;;;;;;;;12.52;74.20;101639.63;1271851;23;713;-64
2023/02/21 03:23:35;;;;;;;;;;;;;;;12.54;73.96;101628.00;1270810;23;662;-64
2023/02/21 03:24:25;;;;;;;;;;;;;;;12.54;73.78;101630.66;1272650;23;641;-64
2023/02/21 03:25:16;;;;;;;;;;;;;;;12.54;74.54;101639.50;1270678;23;662;-64
2023/02/21 03:26:06;;;;;;;;;;;;;;;12.57;73.60;101641.13;1271885;23;589;-64
2023/02/21 03:26:57;;;;;;;;;;;;;;;12.56;74.32;101639.41;1272919;23;657;-63
2023/02/21 03:27:47;;;;;;;;;;;;;;;12.55;74.55;101633.22;1271838;23;622;-64
2023/02/21 03:28:38;;;;;;;;;;;;;;;12.56;73.57;101640.28;1271434;23;658;-64
2023/02/21 03:29:28;;;;;;;;;;;;;;;12.57;73.61;101633.97;1272586;23;602;-64
2023/02/21 03:30:19;;;;;;;;;;;;;;;12.55;73.55;101635.88;1271967;23;674;-64
2023/02/21 03:31:09;;;;;;;;;;;;;;;12.54;74.55;101636.84;1270682;23;657;-64
2023/02/21 03:32:59;;;;;;;;;;;;;;;12.55;74.17;101630.53;1271272;23;677;-64
2023/02/21 03:33:50;;;;;;;;;;;;;;;12.56;74.35;101623.38;1271648;23;700;-64
2023/02/21 03:34:40;;;;;;;;;;;;;;;12.57;74.41;101630.44;1270637;23;696;-64
2023/02/21 03:35:31;;;;;;;;;;;;;;;12.57;74.55;101620.63;1270552;23;634;-64
2023/02/21 03:36:21;;;;;;;;;;;;;;;12.54;73.64;101620.78;1272611;23;657;-64
2023/02/21 03:37:12;;;;;;;;;;;;;;;12.55;74.48;101627.88;1271935;23;708;-64
2023/02/21 03:38:02;;;;;;;;;;;;;;;12.55;73.87;101621.66;1271641;23;626;-64
2023/02/21 03:38:53;;;;;;;;;;;;;;;12.56;74.08;101634.06;1272657;23;685;-65
2023/02/21 03:39:43;;;;;;;;;;;;;;;12.55;74.18;101624.31;1271780;23;693;-65
2023/02/21 03:40:34;;;;;;;;;;;;;;;12.55;74.32;101627.00;1272668;23;692;-64
2023/02/21 03:41:24;;;;;;;;;;;;;;;12.55;74.16;101627.88;1271580;23;674;-64
2023/02/21 03:42:14;;;;;;;;;;;;;;;12.57;73.97;101628.63;1271829;23;697;-64
2023/02/21 03:43:06;;;;;;;;;;;;;;;12.58;73.78;101626.81;1271540;23;673;-64
2023/02/21 03:43:56;;;;;;;;;;;;;;;12.57;74.62;101630.44;1270418;23;634;-64
2023/02/21 03:44:47;;;;;;;;;;;;;;;12.57;74.33;101631.31;1272688;23;736;-64
2023/02/21 03:45:37;;;;;;;;;;;;;;;12.58;74.38;101625.00;1271752;23;658;-64
2023/02/21 03:46:27;;;;;;;;;;;;;;;12.58;74.01;101630.34;1271777;23;653;-64
2023/02/21 03:47:18;;;;;;;;;;;;;;;12.58;74.28;101619.66;1271632;23;614;-64
2023/02/21 03:48:08;;;;;;;;;;;;;;;12.59;74.47;101623.19;1272585;23;645;-64
2023/02/21 03:48:59;;;;;;;;;;;;;;;12.57;74.28;101620.63;1271815;23;681;-63
2023/02/21 03:49:49;;;;;;;;;;;;;;;12.58;74.36;101626.81;1271741;23;645;-64
2023/02/21 03:50:39;;;;;;;;;;;;;;;12.55;74.19;101617.16;1271864;23;673;-64
2023/02/21 03:51:30;;;;;;;;;;;;;;;12.56;74.21;101616.22;1270683;23;619;-64
2023/02/21 03:52:20;;;;;;;;;;;;;;;12.58;73.68;101625.00;1271852;23;646;-65
2023/02/21 03:53:11;;;;;;;;;;;;;;;12.57;73.76;101620.63;1271992;23;685;-64
2023/02/21 03:54:01;;;;;;;;;;;;;;;12.58;73.95;101617.00;1271672;23;669;-64
2023/02/21 03:54:52;;;;;;;;;;;;;;;12.58;73.98;101617.00;1271915;23;642;-64
2023/02/21 03:55:42;;;;;;;;;;;;;;;12.57;74.57;101615.25;1271588;23;618;-64
2023/02/21 03:56:33;;;;;;;;;;;;;;;12.57;74.23;101617.94;1271894;23;661;-64
2023/02/21 03:57:23;;;;;;;;;;;;;;;12.58;73.70;101611.63;1271734;23;622;-64
2023/02/21 03:58:13;;;;;;;;;;;;;;;12.58;74.05;101617.00;1271747;23;1892;-64
2023/02/21 03:59:04;;;;;;;;;;;;;;;12.58;74.38;101617.00;1270537;23;623;-64
2023/02/21 03:59:54;;;;;;;;;;;;;;;12.57;74.05;101617.94;1271753;23;615;-65
2023/02/21 04:00:45;;;;;;;;;;;;;;;12.56;74.11;101618.88;1272240;23;860;-64
2023/02/21 04:01:35;;;;;;;;;;;;;;;12.57;74.13;101611.72;1270346;23;622;-65
2023/02/21 04:02:26;;;;;;;;;;;;;;;12.58;73.73;101622.34;1271118;23;693;-64
2023/02/21 04:03:16;;;;;;;;;;;;;;;12.55;73.91;101617.16;1271565;23;685;-65
2023/02/21 04:04:06;;;;;;;;;;;;;;;12.57;73.63;101620.63;1271893;23;674;-65
2023/02/21 04:04:57;;;;;;;;;;;;;;;12.58;74.38;101626.81;1271506;23;670;-64
2023/02/21 04:05:47;;;;;;;;;;;;;;;12.58;74.40;101618.81;1271738;23;717;-65
2023/02/21 04:06:38;;;;;;;;;;;;;;;12.58;74.19;101627.69;1271838;23;693;-64
2023/02/21 04:07:28;;;;;;;;;;;;;;;12.57;73.54;101625.09;1271702;23;650;-64
2023/02/21 04:08:19;;;;;;;;;;;;;;;12.58;74.44;101626.81;1272764;23;661;-64
2023/02/21 04:09:09;;;;;;;;;;;;;;;12.58;73.47;101621.47;1271673;23;678;-65
2023/02/21 04:09:59;;;;;;;;;;;;;;;12.57;73.54;101617.94;1271810;23;673;-65
2023/02/21 04:10:50;;;;;;;;;;;;;;;12.57;74.39;101612.59;1271449;23;638;-64
2023/02/21 04:11:40;;;;;;;;;;;;;;;12.57;74.50;101614.41;1271721;23;646;-64
2023/02/21 04:12:34;;;;;;;;;;;;;;;12.54;74.02;101615.44;1271789;23;748;-64
2023/02/21 04:13:24;;;;;;;;;;;;;;;12.56;73.91;101612.69;1272542;23;614;-64
2023/02/21 04:14:14;;;;;;;;;;;;;;;12.55;74.03;101619.84;1272559;23;696;-64
2023/02/21 04:15:05;;;;;;;;;;;;;;;12.55;73.70;101611.81;1272481;23;800;-63
2023/02/21 04:15:55;;;;;;;;;;;;;;;12.55;73.94;101606.47;1271683;23;638;-63
2023/02/21 04:16:46;;;;;;;;;;;;;;;12.56;74.18;101610.88;1271932;23;681;-63
2023/02/21 04:17:36;;;;;;;;;;;;;;;12.58;74.06;101616.13;1272418;23;957;-64
2023/02/21 04:18:27;;;;;;;;;;;;;;;12.56;74.03;101610.88;1270563;23;1888;-64
2023/02/21 04:19:17;;;;;;;;;;;;;;;12.57;74.53;101615.25;1271622;23;653;-64
2023/02/21 04:20:08;;;;;;;;;;;;;;;12.58;73.67;101617.00;1272724;23;638;-64
2023/02/21 04:20:58;;;;;;;;;;;;;;;12.57;73.62;101612.59;1271619;23;642;-63
2023/02/21 04:21:48;;;;;;;;;;;;;;;12.57;74.22;101609.91;1272259;23;641;-64
2023/02/21 04:22:39;;;;;;;;;;;;;;;12.58;74.31;101610.78;1272066;23;613;-64
2023/02/21 04:23:29;;;;;;;;;;;;;;;12.57;73.64;101609.91;1272579;23;689;-64
2023/02/21 04:24:20;;;;;;;;;;;;;;;12.57;73.84;101614.41;1270641;23;622;-64
2023/02/21 04:25:10;;;;;;;;;;;;;;;12.56;74.09;101610.00;1272675;23;664;-64
2023/02/21 04:26:01;;;;;;;;;;;;;;;12.57;74.27;101614.41;1272627;23;657;-64
2023/02/21 04:26:51;;;;;;;;;;;;;;;12.57;74.33;101617.94;1271063;23;645;-64
2023/02/21 04:27:42;;;;;;;;;;;;;;;12.57;74.29;101615.25;1271818;23;630;-63
2023/02/21 04:28:32;;;;;;;;;;;;;;;12.57;73.92;101617.94;1272596;23;676;-64
2023/02/21 04:29:22;;;;;;;;;;;;;;;12.57;73.76;101615.25;1271627;23;674;-64
2023/02/21 04:30:13;;;;;;;;;;;;;;;12.58;73.97;101613.44;1271953;23;670;-64
2023/02/21 04:31:03;;;;;;;;;;;;;;;12.57;74.67;101607.25;1271581;23;669;-64
2023/02/21 04:31:54;;;;;;;;;;;;;;;12.58;74.19;101611.63;1271816;23;649;-64
2023/02/21 04:32:44;;;;;;;;;;;;;;;12.57;74.20;101604.56;1272457;23;697;-64
2023/02/21 04:33:35;;;;;;;;;;;;;;;12.57;74.09;101607.25;1272508;23;693;-64
2023/02/21 04:34:25;;;;;;;;;;;;;;;12.57;74.60;101603.72;1271645;23;684;-64
2023/02/21 04:35:16;;;;;;;;;;;;;;;12.57;74.54;101599.22;1271848;23;658;-64
2023/02/21 04:36:06;;;;;;;;;;;;;;;12.56;74.70;101602.84;1270782;23;666;-64
2023/02/21 04:36:57;;;;;;;;;;;;;;;12.56;74.38;101607.34;1271786;23;677;-64
2023/02/21 04:37:47;;;;;;;;;;;;;;;12.55;74.61;101611.81;1272148;23;630;-64
2023/02/21 04:38:37;;;;;;;;;;;;;;;12.57;73.94;101617.06;1272123;23;1909;-64
2023/02/21 04:39:28;;;;;;;;;;;;;;;12.56;74.14;101613.53;1272378;23;614;-64
2023/02/21 04:40:18;;;;;;;;;;;;;;;12.57;73.85;101614.41;1271707;23;689;-64
2023/02/21 04:41:09;;;;;;;;;;;;;;;12.57;74.09;101617.94;1271393;23;658;-63
2023/02/21 04:41:59;;;;;;;;;;;;;;;12.56;74.47;101616.22;1271637;23;670;-64
2023/02/21 04:42:50;;;;;;;;;;;;;;;12.56;74.37;101610.88;1271805;23;740;-63
2023/02/21 04:43:40;;;;;;;;;;;;;;;12.55;74.06;101616.31;1272450;23;657;-64
2023/02/21 04:44:30;;;;;;;;;;;;;;;12.55;74.24;101609.16;1271559;23;661;-64
2023/02/21 04:45:21;;;;;;;;;;;;;;;12.55;74.66;101614.50;1271848;23;662;-63
2023/02/21 04:46:14;;;;;;;;;;;;;;;12.55;73.99;101606.47;1272497;23;665;-64
2023/02/21 04:47:05;;;;;;;;;;;;;;;12.54;74.64;101607.44;1271131;23;681;-64
2023/02/21 04:47:55;;;;;;;;;;;;;;;12.55;74.19;101609.16;1270724;23;611;-65
2023/02/21 04:48:46;;;;;;;;;;;;;;;12.57;74.53;101603.72;1271806;23;634;-64
2023/02/21 04:49:36;;;;;;;;;;;;;;;12.57;74.71;101617.06;1272492;23;606;-64
2023/02/21 04:50:27;;;;;;;;;;;;;;;12.55;74.50;101617.16;1272029;23;678;-65
2023/02/21 04:51:18;;;;;;;;;;;;;;;12.55;74.56;101609.16;1273015;23;873;-65
2023/02/21 04:52:09;;;;;;;;;;;;;;;12.55;73.71;101608.28;1272243;23;665;-64
2023/02/21 04:52:59;;;;;;;;;;;;;;;12.57;74.65;101617.06;1272938;23;626;-65
2023/02/21 04:53:49;;;;;;;;;;;;;;;12.58;74.67;101619.66;1272044;23;658;-65
2023/02/21 04:54:40;;;;;;;;;;;;;;;12.58;74.36;101616.13;1272288;23;656;-65
2023/02/21 04:55:30;;;;;;;;;;;;;;;12.58;74.22;101611.63;1272916;23;673;-65
2023/02/21 04:56:21;;;;;;;;;;;;;;;12.57;74.01;101615.25;1272310;23;677;-65
2023/02/21 04:57:11;;;;;;;;;;;;;;;12.55;73.63;101614.50;1272118;23;610;-65
2023/02/21 04:58:02;;;;;;;;;;;;;;;12.54;73.79;101618.13;1273090;23;724;-65
2023/02/21 04:58:52;;;;;;;;;;;;;;;12.52;74.05;101612.03;1272475;23;641;-65
2023/02/21 04:59:42;;;;;;;;;;;;;;;12.55;74.14;101613.63;1270863;23;614;-65
2023/02/21 05:00:33;;;;;;;;;;;;;;;12.55;74.49;101610.97;1271011;23;674;-65
2023/02/21 05:01:23;;;;;;;;;;;;;;;12.55;73.92;101616.31;1272573;23;629;-65
2023/02/21 05:02:14;;;;;;;;;;;;;;;12.56;73.72;101620.72;1271153;23;645;-65
2023/02/21 05:03:04;;;;;;;;;;;;;;;12.57;73.72;101619.75;1271067;23;633;-65
2023/02/21 05:03:55;;;;;;;;;;;;;;;12.54;74.33;101618.13;1272058;23;871;-65
2023/02/21 05:04:45;;;;;;;;;;;;;;;12.54;74.48;101610.09;1271890;23;610;-65
2023/02/21 05:05:35;;;;;;;;;;;;;;;12.55;73.64;101617.16;1272009;23;548;-64
2023/02/21 05:06:26;;;;;;;;;;;;;;;12.53;73.91;101603.06;1272272;23;685;-65
2023/02/21 05:07:16;;;;;;;;;;;;;;;12.55;74.20;101616.31;1272012;23;755;-65
2023/02/21 05:08:07;;;;;;;;;;;;;;;12.54;73.78;101610.09;1272274;23;662;-65
2023/02/21 05:08:57;;;;;;;;;;;;;;;12.55;74.55;101605.63;1271941;23;638;-65
2023/02/21 05:09:48;;;;;;;;;;;;;;;12.55;73.91;101603.81;1272186;23;693;-65
2023/02/21 05:10:38;;;;;;;;;;;;;;;12.56;74.68;101607.34;1272187;23;625;-65
2023/02/21 05:11:29;;;;;;;;;;;;;;;12.55;74.52;101608.28;1270896;23;712;-65
2023/02/21 05:12:20;;;;;;;;;;;;;;;12.55;73.99;101611.81;1272121;23;682;-65
2023/02/21 05:13:10;;;;;;;;;;;;;;;12.54;73.63;101604.75;1272901;23;629;-65
2023/02/21 05:14:01;;;;;;;;;;;;;;;12.54;73.89;101606.59;1272143;23;685;-65
2023/02/21 05:14:51;;;;;;;;;;;;;;;12.54;73.94;101619.97;1271864;23;677;-65
2023/02/21 05:15:41;;;;;;;;;;;;;;;12.53;74.73;101613.75;1272030;23;642;-65
2023/02/21 05:16:32;;;;;;;;;;;;;;;12.52;74.13;101615.56;1272358;23;680;-65
2023/02/21 05:17:22;;;;;;;;;;;;;;;12.54;74.06;101617.28;1271194;23;630;-65
2023/02/21 05:18:13;;;;;;;;;;;;;;;12.55;73.81;101616.31;1272266;23;645;-65
2023/02/21 05:19:03;;;;;;;;;;;;;;;12.55;74.20;101618.97;1271906;23;690;-65
2023/02/21 05:19:54;;;;;;;;;;;;;;;12.56;73.69;101612.69;1272011;23;705;-65
2023/02/21 05:20:44;;;;;;;;;;;;;;;12.55;74.00;101614.50;1271772;23;614;-65
2023/02/21 05:21:36;;;;;;;;;;;;;;;12.57;74.57;101614.41;1271863;23;614;-65
2023/02/21 05:22:27;;;;;;;;;;;;;;;12.55;74.40;101598.47;1271425;23;669;-65
2023/02/21 05:23:17;;;;;;;;;;;;;;;12.55;74.40;101606.47;1271836;23;678;-65
2023/02/21 05:24:08;;;;;;;;;;;;;;;12.56;74.29;101597.50;1272187;23;677;-65
2023/02/21 05:24:58;;;;;;;;;;;;;;;12.58;73.82;101602.75;1270549;23;677;-65
2023/02/21 05:25:49;;;;;;;;;;;;;;;12.57;74.55;101609.91;1272118;23;665;-65
2023/02/21 05:26:39;;;;;;;;;;;;;;;12.57;74.02;101612.59;1271799;23;642;-65
2023/02/21 05:27:29;;;;;;;;;;;;;;;12.58;73.51;101610.78;1272856;23;625;-65
2023/02/21 05:28:20;;;;;;;;;;;;;;;12.56;73.63;101608.19;1272427;23;638;-65
2023/02/21 05:29:10;;;;;;;;;;;;;;;12.57;74.39;101617.94;1271963;23;626;-65
2023/02/21 05:30:01;;;;;;;;;;;;;;;12.57;73.74;101620.63;1272935;23;688;-65
2023/02/21 05:30:51;;;;;;;;;;;;;;;12.57;73.82;101623.28;1270983;23;619;-65
2023/02/21 05:31:42;;;;;;;;;;;;;;;12.55;73.82;101622.50;1272837;23;696;-64
2023/02/21 05:32:32;;;;;;;;;;;;;;;12.55;74.46;101622.50;1272560;23;723;-64
2023/02/21 05:33:22;;;;;;;;;;;;;;;12.56;74.27;101631.41;1272557;23;670;-65
2023/02/21 05:34:13;;;;;;;;;;;;;;;12.57;74.07;101625.09;1271475;23;689;-64
2023/02/21 05:35:03;;;;;;;;;;;;;;;12.57;73.68;101625.97;1271852;23;642;-65
2023/02/21 05:35:54;;;;;;;;;;;;;;;12.54;74.19;101626.13;1272137;23;716;-65
2023/02/21 05:36:44;;;;;;;;;;;;;;;12.53;74.22;101619.09;1272750;23;648;-65
2023/02/21 05:37:35;;;;;;;;;;;;;;;12.54;73.96;101620.78;1272044;23;618;-66
2023/02/21 05:38:25;;;;;;;;;;;;;;;12.54;74.56;101619.97;1270666;23;1951;-65
2023/02/21 05:39:16;;;;;;;;;;;;;;;12.53;74.05;101624.44;1272279;23;641;-64
2023/02/21 05:40:06;;;;;;;;;;;;;;;12.54;73.74;101622.63;1271010;23;626;-64
2023/02/21 05:40:57;;;;;;;;;;;;;;;12.55;74.60;101621.66;1272035;23;711;-64
2023/02/21 05:41:47;;;;;;;;;;;;;;;12.55;74.36;101618.97;1271907;23;674;-63
2023/02/21 05:42:38;;;;;;;;;;;;;;;12.54;74.33;101619.97;1271295;23;661;-64
2023/02/21 05:43:32;;;;;;;;;;;;;;;12.54;73.87;101617.28;1271032;23;630;-64
2023/02/21 05:44:22;;;;;;;;;;;;;;;12.57;73.77;101617.06;1272600;23;665;-63
2023/02/21 05:45:13;;;;;;;;;;;;;;;12.58;73.98;101627.69;1271042;23;641;-64
2023/02/21 05:46:03;;;;;;;;;;;;;;;12.57;74.00;101620.63;1272779;23;665;-64
2023/02/21 05:46:54;;;;;;;;;;;;;;;12.55;74.68;101624.31;1271966;23;666;-64
2023/02/21 05:47:44;;;;;;;;;;;;;;;12.56;74.62;101626.06;1271764;23;669;-64
2023/02/21 05:48:34;;;;;;;;;;;;;;;12.55;74.33;101619.84;1272760;23;630;-64
2023/02/21 05:49:26;;;;;;;;;;;;;;;12.54;73.88;101620.78;1272145;23;710;-64
2023/02/21 05:50:17;;;;;;;;;;;;;;;12.54;73.80;101619.97;1272114;23;733;-64
2023/02/21 05:51:07;;;;;;;;;;;;;;;12.55;74.16;101624.31;1272724;23;633;-64
2023/02/21 05:51:58;;;;;;;;;;;;;;;12.56;74.62;101628.72;1272131;23;697;-64
2023/02/21 05:52:48;;;;;;;;;;;;;;;12.57;73.95;101625.97;1270805;23;744;-64
2023/02/21 05:53:38;;;;;;;;;;;;;;;12.56;74.34;101620.72;1272339;23;602;-64
2023/02/21 05:54:29;;;;;;;;;;;;;;;12.55;74.50;101625.19;1272914;23;629;-64
2023/02/21 05:55:19;;;;;;;;;;;;;;;12.55;74.11;101625.19;1271864;23;638;-64
2023/02/21 05:56:10;;;;;;;;;;;;;;;12.55;74.60;101624.31;1272086;23;638;-65
2023/02/21 05:57:00;;;;;;;;;;;;;;;12.55;73.91;101622.50;1270804;23;806;-65
2023/02/21 05:57:51;;;;;;;;;;;;;;;12.59;74.88;101624.06;1271958;23;697;-65
2023/02/21 05:58:41;;;;;;;;;;;;;;;12.67;74.27;101626.28;1271913;23;1941;-65
2023/02/21 05:59:32;;;;;;;;;;;;;;;12.70;74.47;101629.63;1272110;23;645;-64
2023/02/21 06:00:22;;;;;;;;;;;;;;;12.74;74.55;101628.47;1270715;23;610;-65
2023/02/21 06:01:13;;;;;;;;;;;;;;;12.77;74.99;101636.31;1271168;23;665;-65
2023/02/21 06:02:03;;;;;;;;;;;;;;;12.81;74.37;101636.97;1271638;23;677;-64
2023/02/21 06:02:54;;;;;;;;;;;;;;;12.81;74.66;101628.97;1272022;23;658;-65
2023/02/21 06:03:44;;;;;;;;;;;;;;;12.83;74.68;101637.75;1272298;23;626;-64
2023/02/21 06:04:35;;;;;;;;;;;;;;;12.88;74.52;101637.47;1272364;23;669;-65
2023/02/21 06:05:25;;;;;;;;;;;;;;;12.89;74.29;101634.72;1270816;23;634;-65
2023/02/21 06:06:16;;;;;;;;;;;;;;;12.91;74.69;101635.44;1271770;23;701;-64
2023/02/21 06:07:06;;;;;;;;;;;;;;;12.92;74.71;101637.16;1271589;23;662;-65
2023/02/21 06:07:56;;;;;;;;;;;;;;;12.92;74.37;101641.66;1271765;23;615;-65
2023/02/21 06:08:47;;;;;;;;;;;;;;;12.93;74.45;101635.34;1272100;23;629;-65
2023/02/21 06:09:37;;;;;;;;;;;;;;;12.94;74.51;101629.03;1271691;23;654;-65
2023/02/21 06:10:28;;;;;;;;;;;;;;;12.94;74.63;101635.25;1271880;23;634;-65
2023/02/21 06:11:18;;;;;;;;;;;;;;;12.93;73.91;101636.22;1271737;23;606;-65
2023/02/21 06:12:08;;;;;;;;;;;;;;;12.94;74.50;101629.03;1271865;23;677;-65
2023/02/21 06:12:59;;;;;;;;;;;;;;;12.96;74.47;101632.50;1272803;23;673;-65
2023/02/21 06:13:49;;;;;;;;;;;;;;;12.96;73.96;101628.00;1271709;23;650;-65
2023/02/21 06:14:40;;;;;;;;;;;;;;;12.95;73.87;101628.09;1272106;23;642;-64
2023/02/21 06:15:30;;;;;;;;;;;;;;;12.97;75.70;101634.22;1271717;23;614;-64
2023/02/21 06:16:21;;;;;;;;;;;;;;;13.01;75.80;101635.75;1271763;23;983;-64
2023/02/21 06:17:11;;;;;;;;;;;;;;;13.06;77.35;101623.81;1270689;23;721;-65
2023/02/21 06:18:02;;;;;;;;;;;;;;;13.10;77.31;101633.34;1271706;23;627;-65
2023/02/21 06:18:52;;;;;;;;;;;;;;;13.10;77.30;101630.66;1272401;23;1294;-65
2023/02/21 06:19:42;;;;;;;;;;;;;;;13.13;76.76;101640.31;1272559;23;614;-65
2023/02/21 06:20:33;;;;;;;;;;;;;;;13.13;77.18;101629.63;1272062;23;689;-65
2023/02/21 06:21:23;;;;;;;;;;;;;;;13.13;77.36;101635.84;1271690;23;654;-65
2023/02/21 06:22:14;;;;;;;;;;;;;;;13.13;77.19;101634.97;1272253;23;676;-65
2023/02/21 06:23:04;;;;;;;;;;;;;;;13.14;77.21;101631.34;1270261;23;756;-65
2023/02/21 06:23:55;;;;;;;;;;;;;;;13.14;77.12;101621.50;1271097;23;650;-65
2023/02/21 06:24:45;;;;;;;;;;;;;;;13.15;76.84;101630.41;1272783;23;661;-65
2023/02/21 06:25:35;;;;;;;;;;;;;;;13.15;76.57;101622.38;1271871;23;600;-65
2023/02/21 06:26:26;;;;;;;;;;;;;;;13.17;76.83;101631.19;1271986;23;780;-65
2023/02/21 06:27:16;;;;;;;;;;;;;;;13.16;77.13;101624.97;1271878;23;642;-65
2023/02/21 06:28:07;;;;;;;;;;;;;;;13.16;76.71;101629.47;1271889;23;657;-65
2023/02/21 06:28:58;;;;;;;;;;;;;;;13.16;76.26;101629.47;1271240;23;709;-65
2023/02/21 06:29:48;;;;;;;;;;;;;;;13.17;76.55;101631.19;1270988;23;886;-65
2023/02/21 06:30:39;;;;;;;;;;;;;;;13.18;77.00;101627.56;1271715;23;680;-65
2023/02/21 06:31:29;;;;;;;;;;;;;;;13.17;76.31;101631.19;1272034;23;657;-65
2023/02/21 06:32:20;;;;;;;;;;;;;;;13.17;76.25;101631.19;1271880;23;757;-65
2023/02/21 06:33:10;;;;;;;;;;;;;;;13.17;76.63;101636.53;1271929;23;666;-65
2023/02/21 06:34:00;;;;;;;;;;;;;;;13.17;76.33;101644.56;1272204;23;863;-65
2023/02/21 06:34:51;;;;;;;;;;;;;;;13.17;75.86;101628.50;1271792;23;722;-65
2023/02/21 06:35:41;;;;;;;;;;;;;;;13.16;76.39;101633.00;1270231;23;678;-65
2023/02/21 06:36:32;;;;;;;;;;;;;;;13.16;75.71;101629.47;1271496;23;685;-65
2023/02/21 06:37:22;;;;;;;;;;;;;;;13.16;76.53;101632.13;1270034;23;717;-65
2023/02/21 06:38:13;;;;;;;;;;;;;;;13.15;75.93;101633.94;1271712;23;614;-65
2023/02/21 06:39:03;;;;;;;;;;;;;;;13.16;75.94;101632.13;1271690;23;665;-65
2023/02/21 06:39:54;;;;;;;;;;;;;;;13.16;76.21;101633.00;1271456;23;602;-65
2023/02/21 06:40:44;;;;;;;;;;;;;;;13.15;75.93;101628.59;1270553;23;630;-65
2023/02/21 06:41:34;;;;;;;;;;;;;;;13.13;75.49;101635.84;1270019;23;615;-65